Time;durP1;ratioP1;P1;durP2;ratioP2;P2;SDS_P1;SDS_P2;PMS_P1;PMS_P2;Temp;Humidity;BMP_temperature;BMP_pressure;BME280_temperature;BME280_humidity;BME280_pressure;Samples;Min_cycle;Max_cycle;Signal;HPM_P1;HPM_P2
2022/09/13 00:02:19;;;;;;;6.07;3.90;;;;;;;15.60;100.00;100862.44;7387776;19;20414;-56
2022/09/13 00:04:49;;;;;;;5.50;3.97;;;;;;;15.56;100.00;100865.78;7393804;19;20422;-54
2022/09/13 00:07:18;;;;;;;6.60;3.93;;;;;;;15.59;100.00;100856.34;7387181;19;20442;-59
2022/09/13 00:09:48;;;;;;;5.10;4.00;;;;;;;15.56;100.00;100855.38;7392293;19;20390;-56
2022/09/13 00:12:18;;;;;;;6.27;4.03;;;;;;;15.54;100.00;100847.56;7387415;19;20409;-53
2022/09/13 00:14:47;;;;;;;7.13;3.83;;;;;;;15.52;100.00;100844.94;7389654;19;20439;-55
2022/09/13 00:17:20;;;;;;;6.97;4.80;;;;;;;15.56;100.00;100839.78;7386585;19;20413;-53
2022/09/13 00:19:49;;;;;;;19.13;11.90;;;;;;;15.55;100.00;100832.84;7392088;19;20487;-57
2022/09/13 00:22:19;;;;;;;7.10;4.33;;;;;;;15.54;100.00;100831.97;7385027;19;20414;-58
2022/09/13 00:24:48;;;;;;;5.97;3.60;;;;;;;15.55;100.00;100832.84;7390511;19;20421;-59
2022/09/13 00:27:17;;;;;;;6.70;3.97;;;;;;;15.54;100.00;100826.78;7385271;19;20415;-56
2022/09/13 00:29:47;;;;;;;7.03;4.40;;;;;;;15.49;100.00;100829.25;7391835;19;20391;-57
2022/09/13 00:32:19;;;;;;;9.30;5.80;;;;;;;15.33;100.00;100820.22;7386935;19;20434;-53
2022/09/13 00:34:49;;;;;;;6.40;4.60;;;;;;;15.15;100.00;100807.69;7388941;19;20449;-50
2022/09/13 00:37:18;;;;;;;7.80;4.90;;;;;;;15.01;100.00;100798.69;7385629;19;20428;-56
2022/09/13 00:39:47;;;;;;;8.03;5.30;;;;;;;14.89;100.00;100781.06;7391485;19;20397;-55
2022/09/13 00:42:18;;;;;;;8.57;5.10;;;;;;;14.70;100.00;100762.41;7390996;19;20490;-52
2022/09/13 00:45:01;;;;;;;8.50;5.73;;;;;;;14.62;100.00;100748.34;7396658;19;20429;-52
2022/09/13 00:47:40;;;;;;;9.80;5.87;;;;;;;14.57;100.00;100724.88;7393826;19;20410;-54
2022/09/13 00:50:18;;;;;;;5.70;4.90;;;;;;;14.43;100.00;100696.88;7398652;19;20384;-54
2022/09/13 00:52:49;;;;;;;7.40;5.50;;;;;;;14.35;100.00;100675.00;7378170;19;20417;-55
2022/09/13 00:55:23;;;;;;;7.43;5.80;;;;;;;14.29;100.00;100672.25;7395756;19;20424;-50
2022/09/13 00:57:53;;;;;;;8.20;6.00;;;;;;;14.27;100.00;100648.00;7393282;19;20419;-55
2022/09/13 01:00:22;;;;;;;8.53;6.30;;;;;;;14.22;100.00;100641.81;7398515;19;20415;-58
2022/09/13 01:02:56;;;;;;;11.37;7.07;;;;;;;14.19;100.00;100640.03;7392643;19;20433;-51
2022/09/13 01:05:27;;;;;;;8.80;6.53;;;;;;;14.27;100.00;100640.22;7400687;19;20427;-54
2022/09/13 01:07:58;;;;;;;10.07;6.80;;;;;;;14.23;100.00;100630.59;7393233;19;20446;-55
2022/09/13 01:10:30;;;;;;;13.43;6.77;;;;;;;14.23;100.00;100620.22;7398045;19;20382;-53
2022/09/13 01:13:10;;;;;;;10.60;6.80;;;;;;;14.20;100.00;100600.25;7391689;19;20416;-58
2022/09/13 01:15:39;;;;;;;8.60;6.77;;;;;;;14.18;100.00;100587.28;7395186;19;20427;-58
2022/09/13 01:18:12;;;;;;;21.33;7.83;;;;;;;14.15;100.00;100583.72;7371553;19;20452;-52
2022/09/13 01:20:49;;;;;;;10.57;6.57;;;;;;;14.11;100.00;100569.78;7398362;19;20400;-54
2022/09/13 01:23:44;;;;;;;12.37;6.53;;;;;;;14.08;100.00;100567.13;7390331;19;20403;-56
2022/09/13 01:26:37;;;;;;;10.57;7.23;;;;;;;14.06;100.00;100561.03;7392484;19;20399;-58
2022/09/13 01:29:27;;;;;;;8.70;6.50;;;;;;;14.08;100.00;100530.81;7397280;19;20407;-60
2022/09/13 01:32:03;;;;;;;9.40;7.30;;;;;;;14.12;100.00;100516.19;7392204;19;20437;-57
2022/09/13 01:34:39;;;;;;;11.50;7.20;;;;;;;14.10;100.00;100494.53;7395549;19;20432;-58
2022/09/13 01:37:27;;;;;;;8.00;6.63;;;;;;;14.10;100.00;100484.16;7391286;19;20415;-56
2022/09/13 01:40:06;;;;;;;10.47;7.27;;;;;;;14.14;100.00;100486.84;7397258;19;20431;-54
2022/09/13 01:42:46;;;;;;;8.07;6.57;;;;;;;14.10;100.00;100469.44;7392382;19;20519;-62
2022/09/13 01:45:23;;;;;;;11.80;6.97;;;;;;;14.10;100.00;100461.66;7395173;19;20415;-52
2022/09/13 01:48:01;;;;;;;12.90;8.10;;;;;;;14.06;100.00;100462.47;7390993;19;20411;-51
2022/09/13 01:50:38;;;;;;;9.93;7.20;;;;;;;14.12;100.00;100449.63;7396707;19;20384;-57
2022/09/13 01:53:11;;;;;;;9.57;6.83;;;;;;;14.11;100.00;100439.22;7389871;19;20430;-54
2022/09/13 01:55:45;;;;;;;10.30;7.20;;;;;;;14.11;100.00;100434.88;7394264;19;20434;-54
2022/09/13 01:58:21;;;;;;;13.40;7.80;;;;;;;14.09;100.00;100431.38;7391808;19;20414;-55
2022/09/13 02:00:56;;;;;;;11.90;7.50;;;;;;;14.20;100.00;100417.78;7396691;19;20409;-51
2022/09/13 02:03:33;;;;;;;13.00;7.10;;;;;;;14.26;100.00;100423.09;7381835;19;20828;-56
2022/09/13 02:06:05;;;;;;;7.67;6.37;;;;;;;14.13;100.00;100427.16;7389893;19;20774;-56
2022/09/13 02:08:38;;;;;;;10.00;6.30;;;;;;;14.10;100.00;100435.72;7395607;19;20380;-56
2022/09/13 02:11:11;;;;;;;10.13;6.80;;;;;;;14.09;100.00;100435.72;7390802;19;20416;-56
2022/09/13 02:13:45;;;;;;;8.30;6.33;;;;;;;14.09;100.00;100441.78;7394685;19;20930;-58
2022/09/13 02:16:19;;;;;;;10.50;6.93;;;;;;;14.11;100.00;100439.22;7389028;19;20389;-58
2022/09/13 02:18:56;;;;;;;8.87;6.33;;;;;;;14.09;100.00;100433.97;7399489;19;20412;-54
2022/09/13 02:21:29;;;;;;;11.00;7.37;;;;;;;14.09;100.00;100430.53;7390160;19;20413;-52
2022/09/13 02:24:02;;;;;;;9.87;6.60;;;;;;;14.07;100.00;100427.00;7394296;19;20380;-58
2022/09/13 02:26:32;;;;;;;9.80;7.07;;;;;;;14.09;100.00;100436.56;7390283;19;20434;-57
2022/09/13 02:29:06;;;;;;;9.83;7.00;;;;;;;14.10;100.00;100440.91;7395486;19;20922;-53
2022/09/13 02:31:38;;;;;;;12.13;6.70;;;;;;;14.11;100.00;100440.06;7390232;19;20445;-57
2022/09/13 02:34:14;;;;;;;10.47;6.97;;;;;;;14.15;100.00;100446.22;7397956;19;20417;-47
2022/09/13 02:36:45;;;;;;;10.20;6.93;;;;;;;14.18;100.00;100449.78;7388276;19;20530;-55
2022/09/13 02:39:17;;;;;;;12.60;7.17;;;;;;;14.16;100.00;100458.34;7394856;19;20386;-55
2022/09/13 02:41:53;;;;;;;10.90;7.30;;;;;;;14.21;100.00;100461.03;7388402;19;20419;-54
2022/09/13 02:44:27;;;;;;;8.57;6.20;;;;;;;14.21;100.00;100461.03;7393579;19;20413;-55
2022/09/13 02:47:16;;;;;;;8.90;6.30;;;;;;;14.18;100.00;100457.56;7389907;19;20432;-52
2022/09/13 02:49:52;;;;;;;13.87;7.67;;;;;;;14.22;100.00;100468.88;7394752;19;20721;-54
2022/09/13 02:52:29;;;;;;;9.83;6.60;;;;;;;14.17;100.00;100458.38;7389098;19;20412;-52
2022/09/13 02:55:06;;;;;;;13.90;7.07;;;;;;;14.18;100.00;100452.38;7392835;19;20534;-55
2022/09/13 02:57:40;;;;;;;11.30;7.30;;;;;;;14.20;100.00;100443.72;7388451;19;20526;-50
2022/09/13 03:00:11;;;;;;;12.47;7.30;;;;;;;14.18;100.00;100444.59;7394138;19;20414;-55
2022/09/13 03:02:42;;;;;;;14.23;8.03;;;;;;;14.11;100.00;100439.22;7388980;19;20441;-58
2022/09/13 03:05:14;;;;;;;11.63;8.20;;;;;;;14.08;100.00;100433.94;7391166;19;20414;-54
2022/09/13 03:07:44;;;;;;;12.47;8.73;;;;;;;14.11;100.00;100440.06;7388455;19;20403;-56
2022/09/13 03:10:14;;;;;;;13.43;8.70;;;;;;;14.09;100.00;100436.56;7393873;19;20391;-55
2022/09/13 03:13:11;;;;;;;12.00;7.97;;;;;;;14.11;100.00;100423.66;7388108;19;20426;-50
2022/09/13 03:15:51;;;;;;;12.27;7.97;;;;;;;14.07;100.00;100417.53;7391959;19;20419;-46
2022/09/13 03:18:38;;;;;;;12.77;7.87;;;;;;;14.06;100.00;100401.91;7388778;19;20412;-57
2022/09/13 03:21:21;;;;;;;11.33;7.50;;;;;;;14.06;100.00;100400.22;7388664;19;20922;-52
2022/09/13 03:23:58;;;;;;;12.80;8.40;;;;;;;14.04;100.00;100397.56;7394758;19;20940;-56
2022/09/13 03:26:37;;;;;;;14.03;7.87;;;;;;;14.08;100.00;100395.91;7387974;19;20433;-60
2022/09/13 03:29:12;;;;;;;11.37;8.60;;;;;;;14.10;100.00;100393.38;7397032;19;20387;-51
2022/09/13 03:31:50;;;;;;;11.50;8.13;;;;;;;14.11;100.00;100388.19;7388064;19;20410;-54
2022/09/13 03:34:25;;;;;;;14.77;9.03;;;;;;;14.14;100.00;100392.56;7391884;19;20419;-57
2022/09/13 03:36:58;;;;;;;14.13;8.70;;;;;;;14.17;100.00;100393.50;7387087;19;20413;-52
2022/09/13 03:39:36;;;;;;;12.03;8.70;;;;;;;14.24;100.00;100388.44;7392975;19;20390;-60
2022/09/13 03:42:13;;;;;;;13.57;9.03;;;;;;;14.28;100.00;100391.16;7387686;19;20985;-55
2022/09/13 03:44:44;;;;;;;13.20;8.90;;;;;;;14.31;100.00;100392.94;7391494;19;20438;-60
2022/09/13 03:47:16;;;;;;;13.87;9.50;;;;;;;14.32;100.00;100389.50;7372135;19;20409;-55
2022/09/13 03:49:46;;;;;;;17.33;9.23;;;;;;;14.31;100.00;100385.16;7392966;19;20372;-56
2022/09/13 03:52:18;;;;;;;14.50;9.40;;;;;;;14.29;100.00;100381.63;7357020;19;20415;-54
2022/09/13 03:54:47;;;;;;;18.10;9.97;;;;;;;14.27;100.00;100385.94;7390985;19;20422;-57
2022/09/13 03:57:19;;;;;;;16.93;10.27;;;;;;;14.28;100.00;100390.28;7386634;19;20430;-58
2022/09/13 03:59:50;;;;;;;16.13;9.53;;;;;;;14.27;100.00;100385.94;7392685;19;20388;-53
2022/09/13 04:02:22;;;;;;;17.93;11.23;;;;;;;14.26;100.00;100387.63;7387190;19;20510;-50
2022/09/13 04:04:51;;;;;;;17.90;9.70;;;;;;;14.28;100.00;100388.56;7390739;19;20952;-47
2022/09/13 04:07:25;;;;;;;18.50;10.70;;;;;;;14.31;100.00;100403.34;7386987;19;20972;-57
2022/09/13 04:09:54;;;;;;;19.13;11.03;;;;;;;14.34;100.00;100405.09;7392461;19;20392;-55
2022/09/13 04:12:24;;;;;;;22.30;12.50;;;;;;;14.28;100.00;100401.53;7387256;19;20411;-56
2022/09/13 04:14:53;;;;;;;20.43;12.37;;;;;;;14.21;100.00;100391.00;7391749;19;20437;-55
2022/09/13 04:17:23;;;;;;;24.63;13.83;;;;;;;14.18;100.00;100389.22;7393835;19;20421;-53
2022/09/13 04:19:52;;;;;;;21.97;13.20;;;;;;;14.11;100.00;100376.97;7399326;19;20407;-54
2022/09/13 04:22:24;;;;;;;22.80;13.50;;;;;;;14.11;100.00;100377.81;7394371;19;20437;-55
2022/09/13 04:24:54;;;;;;;29.00;15.90;;;;;;;14.07;100.00;100355.28;7401154;19;20422;-53
2022/09/13 04:27:29;;;;;;;27.17;13.90;;;;;;;14.02;100.00;100349.09;7396584;19;20865;-51
2022/09/13 04:29:59;;;;;;;29.40;17.33;;;;;;;14.06;100.00;100347.44;7398936;19;20964;-52
2022/09/13 04:32:28;;;;;;;28.47;16.00;;;;;;;14.01;100.00;100348.22;7394262;19;20417;-54
2022/09/13 04:34:57;;;;;;;30.87;17.40;;;;;;;13.99;100.00;100346.44;7396865;19;20434;-55
2022/09/13 04:37:29;;;;;;;32.77;16.33;;;;;;;13.97;100.00;100332.56;7392861;19;20449;-54
2022/09/13 04:39:59;;;;;;;34.10;19.07;;;;;;;13.97;100.00;100338.63;7398526;19;20388;-56
2022/09/13 04:42:28;;;;;;;39.40;19.63;;;;;;;13.93;100.00;100342.00;7393568;19;20431;-56
2022/09/13 04:44:58;;;;;;;31.90;19.00;;;;;;;13.95;100.00;100344.63;7396954;19;21301;-56
2022/09/13 04:47:28;;;;;;;38.10;20.63;;;;;;;13.94;100.00;100341.16;7393676;19;20413;-54
2022/09/13 04:49:57;;;;;;;34.30;20.30;;;;;;;13.94;100.00;100348.06;7398339;19;20385;-59
2022/09/13 04:52:26;;;;;;;33.07;21.10;;;;;;;13.93;100.00;100346.31;7393561;19;20414;-58
2022/09/13 04:55:00;;;;;;;34.30;20.00;;;;;;;13.90;100.00;100352.31;7396515;19;20403;-56
2022/09/13 04:57:29;;;;;;;39.00;21.70;;;;;;;13.93;100.00;100352.38;7392061;19;20404;-58
2022/09/13 04:59:59;;;;;;;32.87;17.27;;;;;;;13.92;100.00;100348.03;7398053;19;20380;-59
2022/09/13 05:02:28;;;;;;;43.77;22.30;;;;;;;13.90;100.00;100363.56;7393024;19;20411;-56
2022/09/13 05:04:58;;;;;;;46.90;24.80;;;;;;;13.95;100.00;100355.00;7396054;19;20460;-54
2022/09/13 05:07:27;;;;;;;46.83;27.00;;;;;;;13.98;100.00;100357.66;7392921;19;20412;-51
2022/09/13 05:09:59;;;;;;;52.33;25.00;;;;;;;14.01;100.00;100355.13;7397766;19;20415;-52
2022/09/13 05:12:29;;;;;;;46.10;26.00;;;;;;;14.07;100.00;100350.09;7392479;19;20436;-54
2022/09/13 05:14:58;;;;;;;54.10;27.00;;;;;;;14.06;100.00;100353.53;7396009;19;20422;-56
2022/09/13 05:17:27;;;;;;;52.63;27.67;;;;;;;14.07;100.00;100350.09;7391688;19;20441;-52
2022/09/13 05:19:57;;;;;;;51.17;26.10;;;;;;;14.09;100.00;100342.34;7397584;19;20404;-54
2022/09/13 05:22:26;;;;;;;45.77;26.17;;;;;;;14.11;100.00;100328.53;7390061;19;20448;-59
2022/09/13 05:24:58;;;;;;;57.63;28.83;;;;;;;14.16;100.00;100321.72;7396315;19;20423;-55
2022/09/13 05:27:27;;;;;;;48.80;27.13;;;;;;;14.18;100.00;100327.84;7384202;19;20419;-57
2022/09/13 05:29:57;;;;;;;51.20;27.80;;;;;;;14.20;100.00;100321.78;7397143;19;20413;-61
2022/09/13 05:32:26;;;;;;;50.83;27.73;;;;;;;14.20;100.00;100319.19;7391647;19;20417;-54
2022/09/13 05:34:56;;;;;;;46.00;27.07;;;;;;;14.20;100.00;100298.44;7395233;19;20461;-54
2022/09/13 05:37:25;;;;;;;53.03;27.83;;;;;;;14.23;100.00;100298.50;7391085;19;21075;-55
2022/09/13 05:39:54;;;;;;;49.97;27.80;;;;;;;14.24;100.00;100284.66;7397118;19;20772;-57
2022/09/13 05:42:43;;;;;;;46.60;25.60;;;;;;;14.22;100.00;100276.00;7388943;19;20808;-52
2022/09/13 05:45:13;;;;;;;51.33;26.87;;;;;;;14.24;100.00;100256.13;7395477;19;20435;-55
2022/09/13 05:47:43;;;;;;;49.07;26.27;;;;;;;14.27;100.00;100256.19;7390798;19;20446;-59
2022/09/13 05:50:12;;;;;;;49.70;26.03;;;;;;;14.29;100.00;100259.69;7396624;19;20407;-58
2022/09/13 05:53:01;;;;;;;47.20;25.93;;;;;;;14.30;100.00;100245.88;7380965;19;20411;-58
2022/09/13 05:55:30;;;;;;;49.40;26.10;;;;;;;14.34;100.00;100249.38;7394797;19;20408;-56
2022/09/13 05:58:03;;;;;;;46.20;25.17;;;;;;;14.40;100.00;100234.81;7388984;19;20439;-54
2022/09/13 06:00:33;;;;;;;46.53;26.23;;;;;;;14.47;100.00;100228.03;7396660;19;20387;-56
2022/09/13 06:03:02;;;;;;;45.53;24.97;;;;;;;14.51;100.00;100226.34;7390255;19;20753;-53
2022/09/13 06:05:32;;;;;;;41.97;24.13;;;;;;;14.49;100.00;100233.22;7394444;19;20425;-57
2022/09/13 06:08:01;;;;;;;43.53;23.57;;;;;;;14.50;100.00;100230.66;7381253;19;20443;-58
2022/09/13 06:10:30;;;;;;;47.87;25.73;;;;;;;14.55;100.00;100241.09;7396085;19;20488;-54
2022/09/13 06:13:02;;;;;;;47.97;24.20;;;;;;;14.55;100.00;100244.59;7389919;19;20419;-52
2022/09/13 06:15:32;;;;;;;49.23;25.13;;;;;;;14.60;100.00;100242.06;7394253;19;20449;-53
2022/09/13 06:18:01;;;;;;;47.07;23.33;;;;;;;14.58;100.00;100236.00;7366527;19;20430;-56
2022/09/13 06:20:31;;;;;;;45.23;24.23;;;;;;;14.62;100.00;100239.50;7395733;19;20388;-50
2022/09/13 06:23:00;;;;;;;43.40;23.67;;;;;;;14.65;100.00;100234.34;7389204;19;20431;-52
2022/09/13 06:25:29;;;;;;;41.83;23.10;;;;;;;14.63;100.00;100234.34;7393731;19;20764;-53
2022/09/13 06:27:59;;;;;;;44.90;21.80;;;;;;;14.70;100.00;100237.91;7390097;19;20424;-55
2022/09/13 06:30:31;;;;;;;36.67;21.43;;;;;;;14.76;100.00;100244.97;7397310;19;20388;-56
2022/09/13 06:33:01;;;;;;;39.23;21.57;;;;;;;14.80;100.00;100236.34;7389583;19;20412;-56
2022/09/13 06:35:30;;;;;;;52.20;26.27;;;;;;;14.77;100.00;100234.59;7393527;19;20421;-53
2022/09/13 06:38:00;;;;;;;36.30;21.13;;;;;;;14.74;100.00;100234.56;7388075;19;20441;-56
2022/09/13 06:40:29;;;;;;;45.77;24.13;;;;;;;14.83;100.00;100241.63;7393798;19;20384;-60
2022/09/13 06:42:59;;;;;;;40.70;22.30;;;;;;;14.89;100.00;100233.94;7389013;19;20427;-57
2022/09/13 06:45:31;;;;;;;44.67;25.00;;;;;;;15.03;100.00;100238.47;7393626;19;20443;-54
2022/09/13 06:48:00;;;;;;;40.43;20.93;;;;;;;15.09;100.00;100249.78;7386337;19;20445;-55
2022/09/13 06:50:30;;;;;;;31.20;19.10;;;;;;;15.08;100.00;100244.59;7391192;19;20756;-56
2022/09/13 06:52:59;;;;;;;35.83;19.30;;;;;;;15.09;100.00;100248.94;7383710;19;20430;-55
2022/09/13 06:55:28;;;;;;;36.00;18.97;;;;;;;15.21;100.00;100254.31;7388893;19;20439;-50
2022/09/13 06:57:58;;;;;;;37.37;21.10;;;;;;;15.33;100.00;100255.34;7382994;19;20495;-55
2022/09/13 07:00:27;;;;;;;30.00;18.00;;;;;;;15.41;100.00;100284.03;7390656;19;20417;-56
2022/09/13 07:02:59;;;;;;;28.80;16.80;;;;;;;15.37;100.00;100304.78;7382852;19;20928;-57
2022/09/13 07:05:29;;;;;;;33.30;17.10;;;;;;;15.36;100.00;100331.66;7392848;19;20441;-55
2022/09/13 07:07:58;;;;;;;30.50;17.97;;;;;;;15.49;100.00;100343.09;7379389;19;20423;-59
2022/09/13 07:10:27;;;;;;;26.60;15.97;;;;;;;15.49;100.00;100356.09;7394010;19;20411;-50
2022/09/13 07:12:57;;;;;;;29.50;15.80;;;;;;;15.52;100.00;100371.75;7387440;19;20940;-55
2022/09/13 07:15:26;;;;;;;27.67;14.87;;;;;;;15.48;100.00;100384.69;7389534;19;20442;-59
2022/09/13 07:17:56;;;;;;;30.43;15.93;;;;;;;15.53;100.00;100399.47;7390253;19;20432;-51
2022/09/13 07:20:28;;;;;;;71.63;39.10;;;;;;;15.67;100.00;100409.22;7397713;19;20760;-51
2022/09/13 07:22:57;;;;;;;28.57;14.83;;;;;;;15.72;100.00;100412.78;7387483;19;20421;-55
2022/09/13 07:25:27;;;;;;;23.87;14.00;;;;;;;15.69;100.00;100420.50;7396079;19;21067;-57
2022/09/13 07:27:56;;;;;;;23.57;12.70;;;;;;;15.71;100.00;100424.03;7387943;19;20786;-57
2022/09/13 07:30:25;;;;;;;24.53;12.17;;;;;;;15.69;100.00;100435.25;7394794;19;20764;-53
2022/09/13 07:32:55;;;;;;;65.77;37.73;;;;;;;15.72;100.00;100443.09;7389804;19;20443;-56
2022/09/13 07:35:24;;;;;;;22.07;11.77;;;;;;;15.70;100.00;100452.59;7391767;19;20438;-57
2022/09/13 07:37:56;;;;;;;50.77;19.03;;;;;;;15.72;100.00;100443.97;7387362;19;20953;-52
2022/09/13 07:40:25;;;;;;;91.23;35.23;;;;;;;15.75;100.00;100451.81;7393178;19;20390;-57
2022/09/13 07:42:55;;;;;;;41.57;22.17;;;;;;;15.88;100.00;100454.59;7387621;19;20769;-50
2022/09/13 07:45:24;;;;;;;26.03;12.93;;;;;;;15.92;100.00;100459.03;7391627;19;20907;-55
2022/09/13 07:47:54;;;;;;;34.87;16.50;;;;;;;16.04;100.00;100469.63;7388313;19;20426;-53
2022/09/13 07:50:24;;;;;;;110.43;40.83;;;;;;;16.13;100.00;100478.41;7398167;19;20391;-57
2022/09/13 07:52:56;;;;;;;62.83;26.50;;;;;;;16.10;100.00;100478.38;7394118;19;20766;-54
2022/09/13 07:55:25;;;;;;;21.07;9.70;;;;;;;16.16;100.00;100491.47;7398247;19;20436;-57
2022/09/13 07:57:54;;;;;;;13.63;8.03;;;;;;;16.16;100.00;100500.16;7384788;19;20431;-58
2022/09/13 08:00:24;;;;;;;83.97;46.30;;;;;;;16.22;100.00;100508.91;7399866;19;20911;-56
2022/09/13 08:02:54;;;;;;;21.70;7.77;;;;;;;16.20;100.00;100512.38;7394823;19;20434;-55
2022/09/13 08:05:23;;;;;;;15.80;6.80;;;;;;;16.19;100.00;100526.25;7397937;19;20409;-54
2022/09/13 08:07:55;;;;;;;34.40;17.27;;;;;;;16.27;100.00;100521.16;7394690;19;20429;-54
2022/09/13 08:10:25;;;;;;;24.07;13.97;;;;;;;16.41;100.00;100536.09;7400060;19;20600;-59
2022/09/13 08:12:54;;;;;;;23.07;10.43;;;;;;;16.63;100.00;100533.75;7394644;19;20957;-57
2022/09/13 08:15:23;;;;;;;11.30;5.63;;;;;;;16.79;100.00;100538.31;7397532;19;20443;-55
2022/09/13 08:17:53;;;;;;;12.07;4.80;;;;;;;16.80;100.00;100545.28;7394016;19;20428;-57
2022/09/13 08:20:22;;;;;;;27.17;8.90;;;;;;;16.75;100.00;100549.56;7402785;19;20497;-57
2022/09/13 08:22:51;;;;;;;14.20;3.73;;;;;;;16.91;100.00;100553.22;7393542;19;20421;-54
2022/09/13 08:25:25;;;;;;;15.63;6.50;;;;;;;16.83;100.00;100563.53;7401711;19;20422;-48
2022/09/13 08:27:54;;;;;;;15.73;8.20;;;;;;;16.90;100.00;100568.84;7394082;19;20447;-51
2022/09/13 08:30:24;;;;;;;11.40;4.60;;;;;;;16.94;100.00;100570.63;7402695;19;20414;-56
2022/09/13 08:32:53;;;;;;;51.53;28.07;;;;;;;17.10;100.00;100566.50;7392902;19;20439;-56
2022/09/13 08:35:23;;;;;;;12.50;6.90;;;;;;;17.00;100.00;100578.53;7396899;19;20438;-54
2022/09/13 08:37:52;;;;;;;9.23;2.57;;;;;;;16.96;100.00;100568.91;7393884;19;20445;-51
2022/09/13 08:40:26;;;;;;;16.50;4.07;;;;;;;16.87;100.00;100578.38;7397607;19;20407;-60
2022/09/13 08:42:59;;;;;;;9.73;2.87;;;;;;;16.92;100.00;100580.16;7393412;19;20417;-55
2022/09/13 08:45:29;;;;;;;30.83;16.57;;;;;;;17.02;100.00;100576.84;7396865;19;20416;-56
2022/09/13 08:48:00;;;;;;;8.43;2.37;;;;;;;17.07;100.00;100582.13;7393643;19;20412;-53
2022/09/13 08:50:32;;;;;;;45.00;25.77;;;;;;;16.94;100.00;100592.38;7398554;19;20427;-55
2022/09/13 08:53:08;;;;;;;15.90;8.00;;;;;;;17.06;100.00;100614.22;7390933;19;20787;-53
2022/09/13 08:55:49;;;;;;;8.10;3.53;;;;;;;17.10;100.00;100635.16;7396904;19;20410;-57
2022/09/13 08:58:31;;;;;;;11.07;4.47;;;;;;;17.16;100.00;100654.34;7391913;19;20457;-57
2022/09/13 09:01:06;;;;;;;10.77;3.80;;;;;;;17.24;100.00;100661.38;7397079;19;20381;-51
2022/09/13 09:03:43;;;;;;;6.37;1.53;;;;;;;17.36;100.00;100665.91;7396081;19;20475;-58
2022/09/13 09:06:18;;;;;;;61.30;30.80;;;;;;;17.47;100.00;100673.84;7393432;19;20412;-56
2022/09/13 09:08:50;;;;;;;44.63;23.67;;;;;;;17.43;100.00;100681.63;7398175;19;20370;-53
2022/09/13 09:11:29;;;;;;;6.27;1.33;;;;;;;17.55;100.00;100694.81;7384613;19;21003;-53
2022/09/13 09:14:04;;;;;;;16.90;5.63;;;;;;;17.51;100.00;100709.53;7397178;19;20380;-53
2022/09/13 09:16:39;;;;;;;27.13;12.57;;;;;;;17.65;100.00;100711.44;7372853;19;20412;-53
2022/09/13 09:19:18;;;;;;;13.37;5.33;;;;;;;17.65;100.00;100725.34;7396623;19;20392;-58
2022/09/13 09:21:50;;;;;;;27.10;13.90;;;;;;;17.82;100.00;100722.06;7392529;19;20410;-54
2022/09/13 09:24:23;;;;;;;25.33;9.60;;;;;;;18.00;100.00;100728.34;7397614;19;20434;-56
2022/09/13 09:26:55;;;;;;;9.13;2.50;;;;;;;18.13;100.00;100722.41;7395218;19;20429;-59
2022/09/13 09:29:27;;;;;;;24.63;9.10;;;;;;;18.28;100.00;100736.47;7397485;19;20389;-62
2022/09/13 09:32:03;;;;;;;6.87;1.70;;;;;;;18.36;100.00;100724.38;7392925;19;20437;-56
2022/09/13 09:34:41;;;;;;;5.37;1.57;;;;;;;18.27;100.00;100748.69;7395431;19;20434;-59
2022/09/13 09:37:17;;;;;;;20.20;8.47;;;;;;;18.37;100.00;100754.84;7391851;19;20951;-61
2022/09/13 09:39:47;;;;;;;13.90;5.20;;;;;;;18.47;100.00;100748.84;7399994;19;20952;-57
2022/09/13 09:42:23;;;;;;;9.73;2.20;;;;;;;18.26;100.00;100767.81;7391559;19;20834;-49
2022/09/13 09:44:55;;;;;;;18.30;3.90;;;;;;;18.19;100.00;100766.88;7395168;19;20782;-56
2022/09/13 09:47:27;;;;;;;10.60;1.73;;;;;;;18.26;100.00;100780.00;7391657;19;20422;-58
2022/09/13 09:50:13;;;;;;;6.10;1.23;;;;;;;18.37;100.00;100793.16;7396826;19;20816;-50
2022/09/13 09:52:49;;;;;;;29.07;15.77;;;;;;;18.58;100.00;100780.31;7391319;19;20407;-55
2022/09/13 09:55:27;;;;;;;22.77;10.63;;;;;;;18.68;100.00;100791.72;7394803;19;20937;-57
2022/09/13 09:58:03;;;;;;;27.83;11.27;;;;;;;18.70;100.00;100795.19;7391690;19;20440;-58
2022/09/13 10:00:34;;;;;;;18.63;8.50;;;;;;;18.80;100.00;100797.88;7394223;19;20760;-56
2022/09/13 10:03:06;;;;;;;25.37;10.90;;;;;;;18.79;100.00;100825.78;7390964;19;20423;-50
2022/09/13 10:05:36;;;;;;;15.93;6.23;;;;;;;18.81;100.00;100836.25;7394268;19;20457;-52
2022/09/13 10:08:07;;;;;;;26.13;13.90;;;;;;;18.82;100.00;100840.59;7391114;19;20432;-54
2022/09/13 10:10:41;;;;;;;121.47;38.10;;;;;;;18.69;100.00;100847.44;7395964;19;20742;-51
2022/09/13 10:13:19;;;;;;;30.13;12.20;;;;;;;18.59;100.00;100856.94;7389738;19;20443;-55
2022/09/13 10:15:56;;;;;;;21.53;7.70;;;;;;;18.32;100.00;100851.41;7395200;19;20449;-52
2022/09/13 10:18:27;;;;;;;13.53;5.03;;;;;;;18.19;100.00;100841.69;7390465;19;20418;-57
2022/09/13 10:21:24;;;;;;;14.40;7.23;;;;;;;18.17;100.00;100848.66;7380422;19;20426;-56
2022/09/13 10:23:58;;;;;;;13.83;4.53;;;;;;;18.13;100.00;100846.84;7398657;19;20381;-55
2022/09/13 10:26:27;;;;;;;14.53;6.90;;;;;;;18.19;100.00;100853.03;7372649;19;20405;-55
2022/09/13 10:29:02;;;;;;;12.37;4.53;;;;;;;18.38;100.00;100868.91;7395615;19;20742;-55
2022/09/13 10:31:33;;;;;;;11.63;3.87;;;;;;;18.13;100.00;100862.50;7376539;19;20442;-59
2022/09/13 10:34:04;;;;;;;18.20;4.10;;;;;;;18.51;100.00;100858.59;7394322;19;20411;-53
2022/09/13 10:36:36;;;;;;;5.43;1.90;;;;;;;18.84;100.00;100865.00;7389175;19;20414;-57
2022/09/13 10:39:23;;;;;;;10.30;1.43;;;;;;;18.87;100.00;100899.88;7394553;19;20742;-56
2022/09/13 10:41:55;;;;;;;11.20;3.87;;;;;;;18.96;100.00;100913.91;7388719;19;20423;-56
2022/09/13 10:44:35;;;;;;;6.10;1.57;;;;;;;19.10;100.00;100906.22;7392384;19;20466;-52
2022/09/13 10:47:06;;;;;;;11.50;4.90;;;;;;;19.10;100.00;100916.69;7391023;19;20437;-57
2022/09/13 10:49:42;;;;;;;12.33;4.27;;;;;;;19.20;100.00;100929.00;7397320;19;20409;-58
2022/09/13 10:52:32;;;;;;;13.23;2.13;;;;;;;19.13;100.00;100942.88;7388897;19;20787;-57
2022/09/13 10:55:27;;;;;;;16.30;5.20;;;;;;;19.27;100.00;100940.34;7393568;19;20446;-56
2022/09/13 10:58:15;;;;;;;16.47;6.17;;;;;;;19.41;100.00;100916.94;7390089;19;20415;-55
2022/09/13 11:01:21;;;;;;;12.47;4.30;;;;;;;19.26;100.00;100928.16;7393617;19;20398;-53
2022/09/13 11:04:19;;;;;;;10.20;3.77;;;;;;;19.29;100.00;100922.97;7392291;19;20419;-51
2022/09/13 11:06:54;;;;;;;22.53;8.20;;;;;;;19.30;100.00;100912.50;7389082;19;20819;-56
2022/09/13 11:09:35;;;;;;;34.03;12.50;;;;;;;19.22;100.00;100890.63;7393750;19;20390;-53
2022/09/13 11:12:10;;;;;;;15.43;5.40;;;;;;;19.13;100.00;100880.13;7389016;19;20956;-55
2022/09/13 11:14:49;;;;;;;13.50;5.77;;;;;;;19.19;100.00;100859.25;7392176;19;20430;-52
2022/09/13 11:17:29;;;;;;;10.30;2.53;;;;;;;19.24;100.00;100854.94;7389064;19;20942;-58
2022/09/13 11:20:12;;;;;;;9.63;1.90;;;;;;;19.28;100.00;100822.69;7392819;19;20394;-56
2022/09/13 11:23:06;;;;;;;20.10;7.80;;;;;;;19.18;100.00;100742.44;7387432;19;20491;-55
2022/09/13 11:25:53;;;;;;;8.97;2.30;;;;;;;19.02;100.00;100689.13;7390323;19;20414;-59
2022/09/13 11:28:27;;;;;;;7.73;3.40;;;;;;;18.86;100.00;100680.31;7388012;19;20408;-58
2022/09/13 11:31:15;;;;;;;11.70;4.20;;;;;;;18.56;100.00;100680.13;7397708;19;20410;-53
2022/09/13 11:33:56;;;;;;;13.53;3.17;;;;;;;18.52;100.00;100694.06;7392053;19;20725;-54
2022/09/13 11:36:40;;;;;;;10.57;3.50;;;;;;;18.51;100.00;100694.03;7388227;19;20431;-59